Time;durP1;ratioP1;P1;durP2;ratioP2;P2;SDS_P1;SDS_P2;PMS_P1;PMS_P2;Temp;Humidity;BMP_temperature;BMP_pressure;BME280_temperature;BME280_humidity;BME280_pressure;Samples;Min_cycle;Max_cycle;Signal;HPM_P1;HPM_P2
2021/09/29 00:02:03;;;;;;;9.27;6.23;;;;;;;17.64;76.20;96541.56;4974822;28;20232;-54
2021/09/29 00:04:28;;;;;;;10.83;8.07;;;;;;;17.65;75.51;96540.50;4974259;28;20178;-54
2021/09/29 00:06:53;;;;;;;6.87;6.37;;;;;;;17.69;75.47;96538.91;4974770;28;20186;-59
2021/09/29 00:09:19;;;;;;;7.10;6.50;;;;;;;17.69;75.54;96546.88;4974557;28;20174;-58
2021/09/29 00:11:44;;;;;;;6.93;6.33;;;;;;;17.66;74.96;96542.09;4974795;28;20591;-57
2021/09/29 00:14:10;;;;;;;7.10;6.50;;;;;;;17.57;74.67;96534.91;4974260;28;20171;-59
2021/09/29 00:16:36;;;;;;;9.73;6.93;;;;;;;17.66;74.80;96530.66;4974598;28;20186;-54
2021/09/29 00:19:01;;;;;;;8.17;7.33;;;;;;;17.76;74.42;96526.16;4974699;28;20397;-54
2021/09/29 00:21:26;;;;;;;7.33;6.63;;;;;;;17.72;74.67;96525.06;4974707;28;20257;-58
2021/09/29 00:23:52;;;;;;;7.13;6.53;;;;;;;17.70;74.75;96531.75;4974097;28;20170;-58
2021/09/29 00:26:17;;;;;;;6.30;5.80;;;;;;;17.69;74.50;96535.44;4974345;28;20204;-54
2021/09/29 00:28:42;;;;;;;9.33;7.20;;;;;;;17.70;73.40;96529.84;4974547;28;20661;-54
2021/09/29 00:31:23;;;;;;;7.63;6.90;;;;;;;17.59;73.72;96530.94;4974770;28;20166;-54
2021/09/29 00:33:50;;;;;;;7.60;6.90;;;;;;;17.58;73.44;96529.34;4974180;28;20248;-54
2021/09/29 00:36:16;;;;;;;7.67;6.77;;;;;;;17.64;72.82;96538.09;4974395;28;20426;-54
2021/09/29 00:38:41;;;;;;;8.00;7.30;;;;;;;17.63;73.00;96541.84;4974282;28;20971;-58
2021/09/29 00:41:06;;;;;;;9.80;6.53;;;;;;;17.54;73.81;96530.91;4974370;28;20174;-58
2021/09/29 00:43:32;;;;;;;8.20;6.33;;;;;;;17.46;73.65;96531.44;4974156;28;20265;-60
2021/09/29 00:45:57;;;;;;;6.60;6.00;;;;;;;17.48;73.70;96529.34;4974313;28;20249;-58
2021/09/29 00:48:23;;;;;;;7.10;6.50;;;;;;;17.46;73.75;96531.44;4974511;28;20182;-58
2021/09/29 00:50:48;;;;;;;9.27;8.37;;;;;;;17.34;74.06;96534.31;4974241;28;20174;-58
2021/09/29 00:53:14;;;;;;;6.60;6.07;;;;;;;17.40;74.27;96525.31;4974505;28;20767;-58
2021/09/29 00:55:39;;;;;;;9.50;7.13;;;;;;;17.44;74.30;96525.56;4974380;28;20245;-59
2021/09/29 00:58:05;;;;;;;8.97;6.20;;;;;;;17.41;74.46;96515.50;4974238;28;20514;-54
2021/09/29 01:00:30;;;;;;;8.13;6.90;;;;;;;17.45;74.48;96513.88;4974259;28;20305;-58
2021/09/29 01:02:56;;;;;;;8.57;6.93;;;;;;;17.48;74.34;96514.16;4973918;28;20260;-55
2021/09/29 01:05:22;;;;;;;7.17;6.47;;;;;;;17.46;74.23;96515.50;4974711;28;20236;-58
2021/09/29 01:07:57;;;;;;;6.80;6.20;;;;;;;17.41;74.00;96518.16;4977674;28;20198;-55
2021/09/29 01:10:41;;;;;;;8.13;6.43;;;;;;;17.39;73.19;96517.59;4977746;28;20181;-55
2021/09/29 01:13:30;;;;;;;8.67;6.67;;;;;;;17.36;72.98;96520.78;4977491;28;20823;-54
2021/09/29 01:16:03;;;;;;;6.37;5.87;;;;;;;17.36;73.19;96516.25;4977717;28;20431;-54
2021/09/29 01:18:32;;;;;;;6.40;5.90;;;;;;;17.36;73.48;96516.25;4977789;28;20413;-54
2021/09/29 01:21:02;;;;;;;7.07;6.30;;;;;;;17.38;73.90;96518.66;4977588;28;20409;-58
2021/09/29 01:23:33;;;;;;;9.03;6.70;;;;;;;17.39;73.33;96512.28;4977153;28;20418;-54
2021/09/29 01:25:58;;;;;;;7.43;5.63;;;;;;;17.03;74.41;96519.38;4977474;28;20461;-59
2021/09/29 01:28:44;;;;;;;6.40;5.90;;;;;;;16.90;75.35;96519.91;4977496;28;20512;-58
2021/09/29 01:31:10;;;;;;;6.30;5.70;;;;;;;16.87;75.75;96514.28;4977524;28;20178;-58
2021/09/29 01:33:37;;;;;;;7.20;6.10;;;;;;;16.71;76.50;96517.97;4977042;28;20804;-58
2021/09/29 01:36:04;;;;;;;7.43;6.73;;;;;;;16.56;77.31;96517.91;4977408;28;20472;-54
2021/09/29 01:38:31;;;;;;;7.30;6.60;;;;;;;16.48;77.82;96519.22;4976992;28;20889;-58
2021/09/29 01:40:56;;;;;;;6.87;6.00;;;;;;;16.44;78.02;96512.78;4977147;28;20410;-58
2021/09/29 01:43:22;;;;;;;7.53;6.97;;;;;;;16.46;77.86;96515.97;4977100;28;20412;-54
2021/09/29 01:45:48;;;;;;;7.73;6.90;;;;;;;16.19;78.96;96513.47;4977176;28;20206;-54
2021/09/29 01:48:17;;;;;;;7.00;6.30;;;;;;;16.28;78.52;96508.47;4977152;28;20201;-54
2021/09/29 01:50:45;;;;;;;8.50;7.60;;;;;;;16.01;79.59;96507.78;4977247;28;20413;-54
2021/09/29 01:53:11;;;;;;;8.27;7.30;;;;;;;15.97;80.05;96506.69;4976708;28;20409;-58
2021/09/29 01:55:38;;;;;;;8.40;7.47;;;;;;;16.05;79.60;96501.69;4976805;28;20437;-58
2021/09/29 01:58:03;;;;;;;9.50;6.80;;;;;;;16.13;79.40;96506.53;4976948;28;20260;-59
2021/09/29 02:00:29;;;;;;;6.93;6.33;;;;;;;16.23;78.81;96506.56;4976806;28;20457;-54
2021/09/29 02:02:59;;;;;;;8.20;7.43;;;;;;;16.27;78.82;96502.34;4976461;28;20177;-58
2021/09/29 02:05:34;;;;;;;8.10;7.30;;;;;;;15.97;79.80;96504.03;4976736;28;20198;-54
2021/09/29 02:08:02;;;;;;;8.90;6.27;;;;;;;15.91;80.43;96513.81;4976793;28;20425;-54
2021/09/29 02:10:28;;;;;;;7.50;6.77;;;;;;;15.85;80.32;96506.84;4976619;28;20425;-54
2021/09/29 02:12:54;;;;;;;8.40;6.50;;;;;;;15.89;80.17;96525.72;4976255;28;20775;-57
2021/09/29 02:15:21;;;;;;;9.43;6.80;;;;;;;15.50;81.88;96517.22;4976544;28;20707;-59
2021/09/29 02:17:46;;;;;;;7.40;6.67;;;;;;;15.78;80.80;96518.75;4975613;28;20174;-54
2021/09/29 02:20:12;;;;;;;7.77;7.03;;;;;;;15.66;81.07;96520.75;4976762;28;20493;-58
2021/09/29 02:22:39;;;;;;;6.77;6.17;;;;;;;15.83;80.72;96526.75;4976228;28;20260;-57
2021/09/29 02:25:06;;;;;;;7.27;6.33;;;;;;;15.79;80.51;96528.28;4976449;28;20584;-54
2021/09/29 02:27:32;;;;;;;11.83;7.63;;;;;;;15.61;80.37;96532.13;4976276;28;20535;-54
2021/09/29 02:29:57;;;;;;;7.10;6.50;;;;;;;15.60;80.45;96527.88;4976323;28;20545;-54
2021/09/29 02:32:22;;;;;;;7.20;6.50;;;;;;;15.64;80.38;96515.72;4976357;28;20185;-54
2021/09/29 02:34:48;;;;;;;7.80;7.10;;;;;;;15.47;80.73;96517.72;4975781;28;20193;-58
2021/09/29 02:37:13;;;;;;;7.40;6.80;;;;;;;15.63;80.30;96531.88;4976158;28;20607;-54
2021/09/29 02:39:39;;;;;;;8.23;6.90;;;;;;;15.14;81.90;96539.09;4976105;28;20166;-57
2021/09/29 02:42:04;;;;;;;8.40;6.60;;;;;;;15.28;81.96;96534.97;4976286;28;20252;-54
2021/09/29 02:44:31;;;;;;;7.00;6.30;;;;;;;15.29;81.98;96537.38;4975661;28;20339;-55
2021/09/29 02:46:57;;;;;;;8.53;7.03;;;;;;;15.34;82.18;96542.72;4976012;28;20206;-54
2021/09/29 02:49:22;;;;;;;8.17;6.90;;;;;;;15.27;82.24;96543.97;4976072;28;20472;-54
2021/09/29 02:51:48;;;;;;;9.70;6.93;;;;;;;15.31;82.24;96550.34;4975855;28;20185;-58
2021/09/29 02:54:13;;;;;;;8.20;7.50;;;;;;;15.12;83.04;96541.97;4975444;28;20213;-54
2021/09/29 02:56:39;;;;;;;9.13;8.23;;;;;;;15.03;83.30;96548.78;4975755;28;20186;-58
2021/09/29 02:59:05;;;;;;;8.00;7.30;;;;;;;14.99;83.59;96557.44;4975655;28;20182;-54
2021/09/29 03:01:30;;;;;;;9.00;7.43;;;;;;;14.67;85.21;96556.53;4974573;28;20180;-54
2021/09/29 03:03:56;;;;;;;8.07;7.23;;;;;;;14.73;85.35;96552.91;4975312;28;20901;-54
2021/09/29 03:06:21;;;;;;;9.67;8.43;;;;;;;14.47;86.01;96565.03;4975302;28;20206;-54
2021/09/29 03:08:46;;;;;;;9.27;7.97;;;;;;;14.56;86.63;96552.16;4975765;28;20178;-54
2021/09/29 03:11:12;;;;;;;9.33;8.40;;;;;;;14.43;86.95;96553.31;4975738;28;20173;-57
2021/09/29 03:13:38;;;;;;;9.90;8.23;;;;;;;14.37;87.66;96559.59;4975229;28;20185;-58
2021/09/29 03:16:03;;;;;;;8.67;7.80;;;;;;;14.23;89.10;96563.59;4975533;28;20244;-58
2021/09/29 03:18:29;;;;;;;9.43;8.50;;;;;;;13.99;89.82;96572.75;4975537;28;20421;-57
2021/09/29 03:20:54;;;;;;;10.00;8.10;;;;;;;14.03;90.54;96573.88;4975499;28;20623;-57
2021/09/29 03:23:19;;;;;;;12.90;8.90;;;;;;;13.97;91.05;96564.25;4974972;28;20170;-57
2021/09/29 03:25:45;;;;;;;9.77;8.77;;;;;;;13.89;91.99;96565.47;4975143;28;20277;-54
2021/09/29 03:28:11;;;;;;;8.37;7.37;;;;;;;13.91;91.58;96568.69;4974977;28;20174;-54
2021/09/29 03:30:37;;;;;;;8.93;8.10;;;;;;;13.95;91.50;96561.84;4975352;28;20269;-57
2021/09/29 03:33:06;;;;;;;9.13;8.23;;;;;;;13.94;91.61;96575.31;4974805;28;20170;-57
2021/09/29 03:35:32;;;;;;;11.03;8.30;;;;;;;14.05;91.48;96577.88;4975066;28;20430;-54
2021/09/29 03:37:57;;;;;;;8.90;8.00;;;;;;;14.05;91.36;96577.06;4974983;28;20888;-54
2021/09/29 03:40:23;;;;;;;9.30;8.37;;;;;;;14.10;91.38;96567.38;4975361;28;20162;-59
2021/09/29 03:42:48;;;;;;;9.37;8.30;;;;;;;14.09;91.27;96576.38;4974693;28;20162;-57
2021/09/29 03:45:14;;;;;;;8.87;8.07;;;;;;;14.08;91.39;96582.66;4975068;28;20197;-54
2021/09/29 03:47:44;;;;;;;10.77;8.47;;;;;;;14.11;91.18;96582.19;4974785;28;20210;-58
2021/09/29 03:50:11;;;;;;;9.37;8.50;;;;;;;14.25;90.83;96585.31;4974893;28;20221;-57
2021/09/29 03:52:37;;;;;;;9.40;8.10;;;;;;;14.24;90.68;96591.63;4974687;28;20413;-54
2021/09/29 03:55:03;;;;;;;9.60;7.87;;;;;;;14.23;90.50;96590.03;4974928;28;20426;-54
2021/09/29 03:57:28;;;;;;;8.40;7.63;;;;;;;14.15;91.42;96588.59;4974870;28;20170;-54
2021/09/29 03:59:53;;;;;;;9.97;7.43;;;;;;;14.23;90.80;96590.03;4974946;28;20194;-58
2021/09/29 04:02:19;;;;;;;10.73;7.33;;;;;;;14.14;91.00;96587.00;4974856;28;20181;-54
2021/09/29 04:04:44;;;;;;;11.07;7.63;;;;;;;14.21;90.95;96595.56;4974278;28;20166;-57
2021/09/29 04:07:09;;;;;;;8.10;7.30;;;;;;;14.22;90.61;96591.84;4974764;28;20198;-54
2021/09/29 04:09:35;;;;;;;8.63;7.40;;;;;;;14.08;91.12;96603.00;4974666;28;20683;-57
2021/09/29 04:12:00;;;;;;;7.80;7.07;;;;;;;14.18;91.35;96600.53;4974956;28;20228;-54
2021/09/29 04:14:26;;;;;;;12.33;8.33;;;;;;;14.34;90.28;96594.44;4974457;28;20212;-54
2021/09/29 04:16:51;;;;;;;9.40;7.50;;;;;;;14.51;89.79;96589.13;4974556;28;20277;-58
2021/09/29 04:19:17;;;;;;;9.30;7.23;;;;;;;14.48;89.58;96594.88;4974697;28;20216;-54
2021/09/29 04:21:43;;;;;;;12.43;7.90;;;;;;;14.27;90.71;96597.28;4974782;28;20174;-57
2021/09/29 04:24:09;;;;;;;9.43;7.60;;;;;;;14.28;90.62;96598.06;4974203;28;20166;-54
2021/09/29 04:26:35;;;;;;;7.67;6.90;;;;;;;14.31;90.84;96600.22;4974504;28;20194;-57
2021/09/29 04:29:00;;;;;;;7.53;6.80;;;;;;;14.35;89.96;96599.50;4974471;28;20445;-54
2021/09/29 04:31:26;;;;;;;7.50;6.80;;;;;;;14.34;90.72;96603.19;4974624;28;20661;-57
2021/09/29 04:33:51;;;;;;;10.20;7.47;;;;;;;14.31;90.49;96611.59;4974138;28;20170;-54
2021/09/29 04:36:17;;;;;;;8.33;6.70;;;;;;;14.27;91.07;96604.41;4974551;28;20260;-58
2021/09/29 04:38:42;;;;;;;7.07;6.20;;;;;;;14.40;90.15;96598.78;4974294;28;20190;-54
2021/09/29 04:41:08;;;;;;;6.60;5.90;;;;;;;14.45;90.07;96604.13;4976077;28;20247;-58
2021/09/29 04:43:33;;;;;;;7.17;6.50;;;;;;;14.35;89.95;96601.31;4977957;28;20181;-57
2021/09/29 04:45:58;;;;;;;6.67;5.97;;;;;;;14.23;91.44;96600.59;4978227;28;20604;-57
2021/09/29 04:48:24;;;;;;;6.43;5.83;;;;;;;14.24;91.12;96607.50;4978303;28;20174;-57
2021/09/29 04:50:49;;;;;;;5.80;5.30;;;;;;;14.26;91.07;96608.88;4978082;28;20170;-54
2021/09/29 04:53:15;;;;;;;6.00;5.50;;;;;;;14.12;91.42;96615.50;4977723;28;20201;-57
2021/09/29 04:55:40;;;;;;;6.20;5.60;;;;;;;14.03;92.04;96614.31;4977936;28;20217;-54
2021/09/29 04:58:09;;;;;;;6.67;6.07;;;;;;;14.05;92.27;96614.06;4978038;28;20178;-58
2021/09/29 05:00:34;;;;;;;7.20;5.37;;;;;;;14.11;92.46;96613.09;4977863;28;20239;-54
2021/09/29 05:03:01;;;;;;;5.80;5.30;;;;;;;14.15;91.62;96615.00;4977457;28;20500;-57
2021/09/29 05:05:27;;;;;;;7.10;6.40;;;;;;;14.24;91.26;96618.06;4977885;28;20676;-59
2021/09/29 05:08:00;;;;;;;10.50;5.97;;;;;;;14.17;91.77;96612.94;4977903;28;20457;-54
2021/09/29 05:10:33;;;;;;;7.13;5.67;;;;;;;14.17;91.64;96620.88;4978115;28;20177;-54
2021/09/29 05:13:03;;;;;;;6.63;5.57;;;;;;;14.13;91.60;96626.88;4977507;28;20896;-57
2021/09/29 05:15:29;;;;;;;6.73;6.13;;;;;;;14.32;91.05;96623.78;4977648;28;20912;-54
2021/09/29 05:17:54;;;;;;;8.90;5.27;;;;;;;14.40;90.50;96626.00;4977599;28;20412;-57
2021/09/29 05:20:19;;;;;;;6.63;5.63;;;;;;;14.51;89.87;96624.31;4977637;28;20640;-54
2021/09/29 05:22:45;;;;;;;5.63;5.13;;;;;;;14.68;88.84;96625.06;4977256;28;20712;-54
2021/09/29 05:25:10;;;;;;;6.70;5.07;;;;;;;14.61;89.35;96627.09;4977511;28;20193;-57
2021/09/29 05:27:36;;;;;;;5.90;5.40;;;;;;;14.56;89.66;96628.84;4977561;28;20660;-54
2021/09/29 05:30:03;;;;;;;6.23;5.73;;;;;;;14.47;89.93;96628.47;4977497;28;20229;-55
2021/09/29 05:32:28;;;;;;;7.53;5.47;;;;;;;14.58;89.28;96630.22;4977289;28;20219;-57
2021/09/29 05:34:54;;;;;;;5.87;5.03;;;;;;;14.43;89.82;96630.81;4976847;28;20445;-54
2021/09/29 05:37:19;;;;;;;8.70;5.93;;;;;;;14.52;89.80;96633.03;4977242;28;20182;-54
2021/09/29 05:39:44;;;;;;;7.03;5.77;;;;;;;14.51;89.94;96642.00;4977446;28;20249;-58
2021/09/29 05:42:10;;;;;;;6.93;6.33;;;;;;;14.53;89.73;96642.56;4977339;28;20170;-57
2021/09/29 05:44:37;;;;;;;5.27;4.80;;;;;;;14.58;89.57;96637.34;4976661;28;20177;-57
2021/09/29 05:47:03;;;;;;;8.23;6.40;;;;;;;14.53;89.89;96645.22;4977629;28;20202;-54
2021/09/29 05:49:29;;;;;;;6.70;5.70;;;;;;;14.64;89.17;96634.53;4977204;28;20460;-57
2021/09/29 05:51:55;;;;;;;7.10;6.43;;;;;;;14.63;89.18;96642.69;4976822;28;20924;-54
2021/09/29 05:54:20;;;;;;;8.23;6.23;;;;;;;14.65;89.13;96645.91;4976739;28;20641;-54
2021/09/29 05:56:46;;;;;;;6.10;5.50;;;;;;;14.84;88.47;96641.94;4977073;28;20561;-58
2021/09/29 05:59:11;;;;;;;6.37;5.77;;;;;;;14.69;88.82;96657.59;4976966;28;20198;-59
2021/09/29 06:01:37;;;;;;;6.43;5.80;;;;;;;14.64;88.98;96654.91;4976787;28;20405;-54
2021/09/29 06:04:02;;;;;;;7.27;5.43;;;;;;;14.81;87.98;96658.28;4976443;28;20176;-58
2021/09/29 06:06:28;;;;;;;6.27;5.10;;;;;;;14.84;88.04;96657.81;4976644;28;20206;-58
2021/09/29 06:08:53;;;;;;;5.87;5.27;;;;;;;14.82;87.30;96658.03;4976701;28;20170;-54
2021/09/29 06:11:18;;;;;;;10.00;5.90;;;;;;;14.79;87.97;96660.38;4976737;28;20537;-58
2021/09/29 06:13:44;;;;;;;6.33;5.57;;;;;;;14.86;87.76;96656.50;4976225;28;20169;-57
2021/09/29 06:16:10;;;;;;;7.70;5.27;;;;;;;14.80;88.22;96659.34;4976456;28;20577;-57
2021/09/29 06:18:39;;;;;;;6.47;5.87;;;;;;;14.74;88.48;96657.66;4976678;28;20174;-54
2021/09/29 06:21:04;;;;;;;5.17;4.70;;;;;;;14.84;87.22;96663.91;4976441;28;20410;-54
2021/09/29 06:23:30;;;;;;;4.83;4.43;;;;;;;14.87;87.18;96660.78;4976137;28;20410;-54
2021/09/29 06:25:56;;;;;;;5.83;5.00;;;;;;;14.93;86.93;96662.44;4974997;28;20186;-54
2021/09/29 06:28:22;;;;;;;5.17;4.57;;;;;;;15.05;86.48;96663.13;4976407;28;20477;-55
2021/09/29 06:30:47;;;;;;;4.87;4.37;;;;;;;15.12;86.00;96674.34;4976397;28;20166;-59
2021/09/29 06:33:14;;;;;;;5.63;4.20;;;;;;;15.08;86.25;96673.22;4975759;28;20693;-54
2021/09/29 06:35:39;;;;;;;5.53;4.80;;;;;;;15.07;86.12;96674.25;4976118;28;20190;-54
2021/09/29 06:38:05;;;;;;;4.33;3.93;;;;;;;14.90;86.97;96672.69;4975789;28;20738;-54
2021/09/29 06:40:31;;;;;;;4.90;4.27;;;;;;;14.82;87.55;96670.50;4975301;28;20508;-57
2021/09/29 06:42:58;;;;;;;7.10;4.87;;;;;;;14.87;87.51;96681.13;4974902;28;20166;-57
2021/09/29 06:45:23;;;;;;;7.37;4.63;;;;;;;15.00;87.34;96678.91;4974969;28;20657;-57
2021/09/29 06:47:49;;;;;;;5.50;5.00;;;;;;;14.84;87.95;96684.28;4975234;28;20452;-57
2021/09/29 06:50:17;;;;;;;6.50;5.40;;;;;;;14.74;87.93;96684.94;4975251;28;20202;-57
2021/09/29 06:52:43;;;;;;;5.03;4.43;;;;;;;14.80;88.28;96675.22;4974834;28;20414;-54
2021/09/29 06:55:08;;;;;;;5.00;4.33;;;;;;;14.57;89.02;96675.41;4975090;28;20488;-54
2021/09/29 06:57:34;;;;;;;11.60;5.63;;;;;;;14.78;88.45;96672.81;4973687;28;20169;-56
2021/09/29 07:00:00;;;;;;;5.37;4.27;;;;;;;14.79;88.42;96673.59;4974911;28;20577;-54
2021/09/29 07:02:25;;;;;;;5.33;4.83;;;;;;;14.93;87.20;96669.59;4975079;28;20181;-54
2021/09/29 07:04:50;;;;;;;5.30;4.60;;;;;;;15.08;86.62;96673.22;4973725;28;20186;-54
2021/09/29 07:07:16;;;;;;;6.10;4.37;;;;;;;15.03;86.11;96675.00;4974793;28;20198;-57
2021/09/29 07:09:41;;;;;;;5.37;3.97;;;;;;;15.00;85.18;96678.91;4974946;28;20173;-54
2021/09/29 07:12:07;;;;;;;4.80;4.50;;;;;;;15.13;85.29;96680.41;4974815;28;20177;-57
2021/09/29 07:14:32;;;;;;;4.10;3.67;;;;;;;15.26;84.88;96680.03;4974299;28;20526;-57
2021/09/29 07:17:00;;;;;;;6.20;3.70;;;;;;;15.15;84.57;96678.31;4974658;28;20744;-58
2021/09/29 07:19:25;;;;;;;7.00;3.67;;;;;;;15.22;84.54;96677.09;4974606;28;20205;-57
2021/09/29 07:21:50;;;;;;;3.97;3.00;;;;;;;15.21;84.05;96679.97;4974672;28;20438;-54
2021/09/29 07:24:16;;;;;;;3.63;2.97;;;;;;;15.32;83.42;96669.28;4974162;28;20170;-57
2021/09/29 07:26:41;;;;;;;4.60;3.53;;;;;;;15.41;83.68;96669.66;4973305;28;20253;-54
2021/09/29 07:29:09;;;;;;;4.83;3.43;;;;;;;15.55;82.54;96678.81;4974403;28;20181;-57
2021/09/29 07:31:35;;;;;;;3.03;2.70;;;;;;;15.43;82.67;96675.50;4974653;28;20178;-54
2021/09/29 07:34:00;;;;;;;4.03;2.60;;;;;;;15.45;82.33;96686.66;4974261;28;20893;-57
2021/09/29 07:36:25;;;;;;;2.73;2.53;;;;;;;15.26;82.29;96691.44;4974423;28;20217;-57
2021/09/29 07:38:50;;;;;;;4.20;2.40;;;;;;;15.18;82.85;96683.13;4936134;28;1133794;-57
2021/09/29 07:41:16;;;;;;;2.50;2.20;;;;;;;15.33;82.04;96689.41;4975068;28;20464;-54
2021/09/29 07:43:42;;;;;;;3.53;2.77;;;;;;;15.28;82.35;96697.28;4974545;28;20181;-54
2021/09/29 07:46:07;;;;;;;2.60;1.97;;;;;;;15.47;82.00;96691.72;4975015;28;20210;-58
2021/09/29 07:48:33;;;;;;;3.20;3.00;;;;;;;15.47;82.97;96687.22;4975015;28;20174;-54
2021/09/29 07:50:59;;;;;;;4.13;2.20;;;;;;;15.62;82.00;96687.38;4975098;28;20257;-55
2021/09/29 07:53:25;;;;;;;3.47;1.97;;;;;;;15.50;81.77;96686.72;4974537;28;20453;-57
2021/09/29 08:19:23;;;;;;;2.80;1.33;;;;;;;16.08;77.11;96667.41;4974795;28;20753;-57
2021/09/29 08:21:49;;;;;;;1.63;1.53;;;;;;;16.16;76.40;96672.25;4974975;28;20410;-54
2021/09/29 08:24:18;;;;;;;1.80;1.60;;;;;;;16.14;76.65;96684.97;4974255;28;20233;-58
2021/09/29 08:27:29;;;;;;;2.40;1.60;;;;;;;16.30;76.09;96681.38;4974535;28;20205;-54
2021/09/29 08:29:47;;;;;;;5.60;1.50;;;;;;;16.25;74.90;96673.41;4976531;28;20426;-55
2021/09/29 08:40:40;;;;;;;1.50;1.37;;;;;;;16.74;74.27;96688.09;4974614;28;20410;-58
2021/09/29 08:42:36;;;;;;;2.03;1.43;;;;;;;16.55;74.02;96675.50;4977045;28;20792;-54
2021/09/29 08:45:10;;;;;;;6.43;1.50;;;;;;;16.58;73.85;96680.31;4974403;28;20441;-54
2021/09/29 08:48:03;;;;;;;3.67;1.57;;;;;;;16.44;73.60;96688.66;4974478;28;20881;-54
2021/09/29 08:50:47;;;;;;;2.90;1.63;;;;;;;16.62;74.24;96684.03;4974188;28;20445;-55
2021/09/29 08:56:21;;;;;;;4.93;1.57;;;;;;;16.75;74.10;96675.63;4974533;28;20433;-54
2021/09/29 09:16:46;;;;;;;2.50;1.10;;;;;;;17.46;68.89;96677.56;4974541;28;20500;-54
2021/09/29 09:18:50;;;;;;;2.03;1.17;;;;;;;17.31;69.03;96683.63;4977109;28;20908;-53
2021/09/29 09:21:18;;;;;;;2.10;1.10;;;;;;;17.33;68.45;96681.50;4956780;28;20425;-55
2021/09/29 09:23:44;;;;;;;2.43;1.40;;;;;;;17.51;67.77;96672.28;4973674;28;20500;-54
2021/09/29 09:26:17;;;;;;;2.33;1.20;;;;;;;17.28;69.19;96672.72;4974105;28;20464;-58
2021/09/29 09:28:44;;;;;;;1.53;1.20;;;;;;;17.59;67.62;96666.47;4977647;28;20507;-55
2021/09/29 09:31:16;;;;;;;3.47;1.20;;;;;;;17.47;69.45;96684.50;4977377;28;20947;-54
2021/09/29 09:33:56;;;;;;;1.50;1.40;;;;;;;17.46;69.23;96661.63;4977056;28;20422;-58
2021/09/29 09:36:27;;;;;;;3.30;1.10;;;;;;;17.60;69.36;96664.59;4977252;28;20417;-55
2021/09/29 09:38:53;;;;;;;3.17;1.67;;;;;;;17.68;69.58;96672.88;4977364;28;20421;-55
2021/09/29 09:41:19;;;;;;;2.10;0.97;;;;;;;17.73;69.08;96656.13;4977374;28;20479;-54
2021/09/29 09:43:53;;;;;;;2.13;1.33;;;;;;;17.93;67.67;96658.81;4976924;28;20410;-55
2021/09/29 09:46:21;;;;;;;3.23;1.30;;;;;;;18.10;67.14;96660.16;4976963;28;20198;-58
2021/09/29 09:48:58;;;;;;;1.20;1.10;;;;;;;18.03;67.17;96659.63;4976991;28;20889;-55
2021/09/29 09:51:24;;;;;;;2.43;1.20;;;;;;;18.19;66.90;96657.78;4977137;28;20881;-55
2021/09/29 09:53:54;;;;;;;2.73;1.00;;;;;;;17.80;66.01;96656.66;4976596;28;20418;-54
2021/09/29 09:56:24;;;;;;;3.23;1.10;;;;;;;17.70;65.70;96660.09;4977176;28;20637;-54
2021/09/29 09:58:54;;;;;;;1.90;1.00;;;;;;;17.81;64.63;96651.09;4976875;28;20414;-54
2021/09/29 10:01:21;;;;;;;2.27;1.20;;;;;;;17.63;62.73;96653.47;4976831;28;20447;-54
2021/09/29 10:03:49;;;;;;;2.97;1.40;;;;;;;17.64;63.14;96655.03;4976566;28;20409;-58
2021/09/29 10:06:15;;;;;;;1.17;1.00;;;;;;;17.64;61.63;96657.72;4976803;28;20962;-58
2021/09/29 10:08:45;;;;;;;0.87;0.83;;;;;;;17.65;60.84;96648.66;4976865;28;20405;-58
2021/09/29 10:11:21;;;;;;;2.03;0.93;;;;;;;17.73;60.94;96653.47;4976934;28;20876;-55
2021/09/29 10:27:24;;;;;;;2.40;1.17;;;;;;;18.44;60.67;96628.53;4976629;28;20491;-55
2021/09/29 10:29:59;;;;;;;2.70;1.30;;;;;;;18.57;59.34;96632.50;4976537;28;20445;-58
2021/09/29 10:32:30;;;;;;;1.07;0.77;;;;;;;18.68;59.93;96628.75;4976505;28;20224;-55
2021/09/29 10:37:52;;;;;;;2.33;0.73;;;;;;;18.64;59.37;96631.16;4975843;28;20429;-59
2021/09/29 10:40:54;;;;;;;2.50;1.00;;;;;;;18.43;59.76;96637.56;4976117;28;20409;-55
2021/09/29 10:43:05;;;;;;;1.80;1.00;;;;;;;18.48;60.41;96637.56;4975385;28;20916;-58
2021/09/29 10:45:46;;;;;;;1.60;1.10;;;;;;;18.31;60.94;96627.19;4975956;28;20426;-58
2021/09/29 11:29:48;;;;;;;2.23;0.90;;;;;;;18.68;61.13;96602.91;4975306;28;20821;-60
2021/09/29 11:34:57;;;;;;;2.20;0.90;;;;;;;18.97;59.61;96611.88;4974683;28;20431;-55
2021/09/29 12:09:18;;;;;;;2.17;0.77;;;;;;;19.27;56.29;96582.44;4974919;28;20452;-55
2021/09/29 12:12:10;;;;;;;1.00;0.60;;;;;;;19.09;56.08;96582.28;4973926;28;20412;-54
2021/09/29 12:14:18;;;;;;;1.27;0.70;;;;;;;19.22;56.94;96584.34;4976078;28;20417;-59
2021/09/29 12:16:47;;;;;;;2.83;0.80;;;;;;;19.25;56.04;96565.13;4974502;28;20436;-59
2021/09/29 12:19:22;;;;;;;2.87;0.83;;;;;;;19.28;54.72;96561.91;4974539;28;20490;-58
2021/09/29 12:21:50;;;;;;;3.10;0.93;;;;;;;19.49;56.07;96579.44;4974487;28;20904;-58
2021/09/29 12:24:46;;;;;;;2.20;0.87;;;;;;;19.56;55.08;96563.91;4974007;28;20495;-54
2021/09/29 12:27:38;;;;;;;1.10;0.70;;;;;;;19.52;54.79;96570.06;4974180;28;20541;-58
2021/09/29 12:38:04;;;;;;;1.87;0.93;;;;;;;19.46;54.96;96574.63;4974426;28;20425;-54
2021/09/29 12:40:33;;;;;;;2.03;0.63;;;;;;;19.29;54.37;96577.66;4974291;28;20920;-54
2021/09/29 12:43:18;;;;;;;2.63;0.90;;;;;;;19.27;55.09;96576.31;4973920;28;20912;-58
2021/09/29 12:45:48;;;;;;;3.50;0.80;;;;;;;19.20;55.10;96568.59;4974173;28;20544;-54
2021/09/29 12:48:16;;;;;;;1.67;0.77;;;;;;;19.18;55.96;96561.97;4974251;28;20456;-58
2021/09/29 12:50:50;;;;;;;1.83;0.90;;;;;;;19.29;56.26;96574.19;4974582;28;20410;-54
2021/09/29 12:53:21;;;;;;;2.00;0.70;;;;;;;19.03;56.11;96578.03;4973822;28;20495;-54
2021/09/29 12:55:53;;;;;;;1.13;0.80;;;;;;;18.96;56.76;96582.84;4974046;28;20437;-58
2021/09/29 12:58:19;;;;;;;0.83;0.77;;;;;;;18.83;57.57;96570.13;4972812;28;20751;-54
2021/09/29 13:00:44;;;;;;;3.27;1.00;;;;;;;18.74;58.92;96577.88;4974221;28;20493;-54
2021/09/29 13:03:09;;;;;;;1.63;1.07;;;;;;;18.83;58.65;96578.09;4977009;28;20646;-54
2021/09/29 13:05:35;;;;;;;1.00;0.73;;;;;;;18.98;59.48;96583.38;4977679;28;20198;-53
2021/09/29 13:08:01;;;;;;;4.97;1.57;;;;;;;19.03;60.58;96573.50;4977753;28;20580;-58
2021/09/29 13:10:27;;;;;;;1.73;0.77;;;;;;;19.07;61.35;96573.75;4977654;28;20210;-54
2021/09/29 13:12:52;;;;;;;4.10;1.30;;;;;;;19.49;60.33;96584.75;4977130;28;20170;-58
2021/09/29 13:15:19;;;;;;;2.70;0.90;;;;;;;19.70;59.31;96580.88;4977649;28;20435;-54
2021/09/29 13:17:46;;;;;;;2.00;0.87;;;;;;;19.63;58.33;96587.59;4977528;28;20253;-58
2021/09/29 13:20:17;;;;;;;2.30;0.83;;;;;;;19.72;58.45;96597.41;4977302;28;20405;-58
2021/09/29 13:22:47;;;;;;;3.10;0.97;;;;;;;19.34;59.17;96604.28;4977085;28;20893;-52
2021/09/29 13:38:19;;;;;;;2.00;1.00;;;;;;;16.84;84.79;96680.19;4977153;28;20418;-53
2021/09/29 13:40:45;;;;;;;2.97;1.40;;;;;;;16.68;88.32;96689.13;4977059;28;20421;-54
2021/09/29 13:43:11;;;;;;;1.70;1.40;;;;;;;16.52;90.21;96686.63;4976514;28;20410;-59
2021/09/29 13:45:37;;;;;;;4.20;1.63;;;;;;;16.33;90.77;96689.63;4975731;28;20442;-58
2021/09/29 13:48:03;;;;;;;4.87;1.40;;;;;;;16.16;93.17;96681.00;4977005;28;20190;-59
2021/09/29 13:50:29;;;;;;;2.70;1.77;;;;;;;15.95;92.77;96686.38;4977096;28;20405;-57
2021/09/29 13:52:55;;;;;;;2.87;1.40;;;;;;;15.83;96.93;96696.34;4976629;28;20411;-54
2021/09/29 13:55:24;;;;;;;2.60;1.60;;;;;;;15.96;96.86;96698.59;4976582;28;20276;-57
2021/09/29 14:00:27;;;;;;;1.30;1.20;;;;;;;16.09;95.47;96698.16;4976924;28;20413;-54
2021/09/29 14:30:21;;;;;;;0.67;0.40;;;;;;;15.80;88.64;96761.22;4976516;28;20823;-58
2021/09/29 14:35:14;;;;;;;0.87;0.60;;;;;;;15.17;86.37;96771.53;4976276;28;20430;-59
2021/09/29 14:37:40;;;;;;;1.00;0.50;;;;;;;15.30;86.87;96766.69;4976368;28;20422;-55
2021/09/29 14:40:06;;;;;;;1.03;0.50;;;;;;;15.00;86.37;96776.06;4976162;28;20220;-58
2021/09/29 14:42:31;;;;;;;0.80;0.40;;;;;;;14.99;87.96;96775.25;4976268;28;20637;-55
2021/09/29 14:44:57;;;;;;;0.87;0.60;;;;;;;14.81;89.11;96778.16;4974266;28;20441;-55
2021/09/29 14:47:22;;;;;;;0.57;0.57;;;;;;;14.88;89.70;96784.09;4975986;28;20194;-55
2021/09/29 14:49:47;;;;;;;0.53;0.53;;;;;;;14.89;89.21;96787.53;4975813;28;20170;-59
2021/09/29 14:52:14;;;;;;;1.33;0.60;;;;;;;14.64;89.79;96793.22;4975974;28;20174;-54
2021/09/29 14:54:39;;;;;;;1.23;0.70;;;;;;;14.71;90.55;96793.06;4975265;28;20185;-58